createdAt,value
2022-11-17T00:00:36.446Z,987.51
2022-11-17T00:01:36.519Z,987.52
2022-11-17T00:02:36.531Z,987.50
2022-11-17T00:03:36.911Z,987.48
2022-11-17T00:04:36.490Z,987.47
2022-11-17T00:05:36.512Z,987.44
2022-11-17T00:06:36.452Z,987.43
2022-11-17T00:07:36.433Z,987.42
2022-11-17T00:08:36.369Z,987.41
2022-11-17T00:09:36.402Z,987.41
2022-11-17T00:10:36.348Z,987.40
2022-11-17T00:11:36.434Z,987.38
2022-11-17T00:12:36.349Z,987.36
2022-11-17T00:13:36.959Z,987.34
2022-11-17T00:14:36.336Z,987.35
2022-11-17T00:15:36.340Z,987.33
2022-11-17T00:16:36.374Z,987.30
2022-11-17T00:17:36.301Z,987.27
2022-11-17T00:18:36.335Z,987.23
2022-11-17T00:19:36.289Z,987.20
2022-11-17T00:20:36.249Z,987.22
2022-11-17T00:21:36.259Z,987.19
2022-11-17T00:22:36.323Z,987.18
2022-11-17T00:23:36.438Z,987.17
2022-11-17T00:24:37.182Z,987.19
2022-11-17T00:25:36.198Z,987.16
2022-11-17T00:26:36.187Z,987.12
2022-11-17T00:27:36.198Z,987.11
2022-11-17T00:28:36.177Z,987.10
2022-11-17T00:29:39.165Z,987.06
2022-11-17T00:30:36.171Z,987.03
2022-11-17T00:31:36.153Z,987.00
2022-11-17T00:32:36.121Z,986.95
2022-11-17T00:33:36.508Z,986.93
2022-11-17T00:34:37.710Z,986.92
2022-11-17T00:35:36.148Z,986.89
2022-11-17T00:36:36.072Z,986.86
2022-11-17T00:37:36.112Z,986.83
2022-11-17T00:38:36.053Z,986.80
2022-11-17T00:39:36.072Z,986.78
2022-11-17T00:40:36.061Z,986.76
2022-11-17T00:41:36.163Z,986.73
2022-11-17T00:42:36.028Z,986.70
2022-11-17T00:43:36.432Z,986.65
2022-11-17T00:44:36.009Z,986.62
2022-11-17T00:45:36.016Z,986.58
2022-11-17T00:46:35.996Z,986.56
2022-11-17T00:47:36.002Z,986.52
2022-11-17T00:48:35.993Z,986.50
2022-11-17T00:49:35.965Z,986.48
2022-11-17T00:50:35.936Z,986.46
2022-11-17T00:51:35.966Z,986.43
2022-11-17T00:52:35.915Z,986.42
2022-11-17T00:53:38.037Z,986.39
2022-11-17T00:54:35.912Z,986.38
2022-11-17T00:55:36.060Z,986.37
2022-11-17T00:56:35.874Z,986.37
2022-11-17T00:57:35.865Z,986.36
2022-11-17T00:58:35.876Z,986.38
2022-11-17T00:59:35.863Z,986.38
2022-11-17T01:00:35.814Z,986.36
2022-11-17T01:01:35.864Z,986.35
2022-11-17T01:02:35.841Z,986.34
2022-11-17T01:03:36.140Z,986.33
2022-11-17T01:04:35.817Z,986.33
2022-11-17T01:05:35.833Z,986.30
2022-11-17T01:06:35.826Z,986.28
2022-11-17T01:07:35.862Z,986.24
2022-11-17T01:08:35.762Z,986.22
2022-11-17T01:09:35.806Z,986.20
2022-11-17T01:10:35.730Z,986.18
2022-11-17T01:11:35.757Z,986.18
2022-11-17T01:12:35.784Z,986.18
2022-11-17T01:13:36.068Z,986.16
2022-11-17T01:14:35.727Z,986.15
2022-11-17T01:15:35.689Z,986.15
2022-11-17T01:16:35.676Z,986.12
2022-11-17T01:17:35.706Z,986.11
2022-11-17T01:18:35.636Z,986.09
2022-11-17T01:19:35.621Z,986.08
2022-11-17T01:20:35.677Z,986.06
2022-11-17T01:21:35.956Z,986.08
2022-11-17T01:22:35.614Z,986.01
2022-11-17T01:23:35.837Z,985.98
2022-11-17T01:24:35.634Z,985.95
2022-11-17T01:25:35.571Z,985.90
2022-11-17T01:26:35.573Z,985.92
2022-11-17T01:27:35.586Z,985.95
2022-11-17T01:28:35.590Z,985.90
2022-11-17T01:29:35.518Z,985.85
2022-11-17T01:30:35.545Z,985.82
2022-11-17T01:31:35.592Z,985.80
2022-11-17T01:32:35.505Z,985.78
2022-11-17T01:33:35.743Z,985.78
2022-11-17T01:34:35.461Z,985.82
2022-11-17T01:35:35.473Z,985.82
2022-11-17T01:36:35.542Z,985.83
2022-11-17T01:37:35.472Z,985.79
2022-11-17T01:38:35.477Z,985.79
2022-11-17T01:39:35.468Z,985.78
2022-11-17T01:40:35.423Z,985.76
2022-11-17T01:41:35.409Z,985.77
2022-11-17T01:42:35.382Z,985.74
2022-11-17T01:43:35.700Z,985.69
2022-11-17T01:44:35.381Z,985.63
2022-11-17T01:45:35.389Z,985.61
2022-11-17T01:46:35.363Z,985.59
2022-11-17T01:47:35.396Z,985.57
2022-11-17T01:48:35.300Z,985.55
2022-11-17T01:49:35.348Z,985.53
2022-11-17T01:50:35.361Z,985.53
2022-11-17T01:51:35.369Z,985.48
2022-11-17T01:52:35.318Z,985.47
2022-11-17T01:53:35.608Z,985.49
2022-11-17T01:54:35.288Z,985.47
2022-11-17T01:55:35.599Z,985.47
2022-11-17T01:56:35.226Z,985.45
2022-11-17T01:57:35.263Z,985.43
2022-11-17T01:58:35.212Z,985.43
2022-11-17T01:59:35.209Z,985.43
2022-11-17T02:00:35.224Z,985.46
2022-11-17T02:01:35.298Z,985.46
2022-11-17T02:02:35.177Z,985.47
2022-11-17T02:03:35.562Z,985.43
2022-11-17T02:04:35.197Z,985.41
2022-11-17T02:05:35.169Z,985.37
2022-11-17T02:06:35.171Z,985.35
2022-11-17T02:07:35.213Z,985.32
2022-11-17T02:08:35.118Z,985.32
2022-11-17T02:09:35.169Z,985.33
2022-11-17T02:10:35.124Z,985.35
2022-11-17T02:11:35.095Z,985.34
2022-11-17T02:12:35.114Z,985.28
2022-11-17T02:13:35.208Z,985.23
2022-11-17T02:14:35.072Z,985.20
2022-11-17T02:15:35.124Z,985.17
2022-11-17T02:16:35.034Z,985.16
2022-11-17T02:17:35.042Z,985.20
2022-11-17T02:18:35.037Z,985.22
2022-11-17T02:19:34.982Z,985.18
2022-11-17T02:20:35.055Z,985.13
2022-11-17T02:21:34.960Z,985.10
2022-11-17T02:22:34.989Z,985.07
2022-11-17T02:23:35.264Z,985.05
2022-11-17T02:24:34.940Z,985.02
2022-11-17T02:25:34.937Z,984.99
2022-11-17T02:26:34.910Z,984.98
2022-11-17T02:27:34.897Z,985.00
2022-11-17T02:28:35.142Z,984.98
2022-11-17T02:29:34.974Z,984.95
2022-11-17T02:30:34.917Z,984.94
2022-11-17T02:31:34.905Z,984.91
2022-11-17T02:32:34.865Z,984.86
2022-11-17T02:33:35.169Z,984.82
2022-11-17T02:34:34.860Z,984.79
2022-11-17T02:35:34.845Z,984.74
2022-11-17T02:36:34.810Z,984.68
2022-11-17T02:37:34.805Z,984.64
2022-11-17T02:38:34.867Z,984.61
2022-11-17T02:39:34.802Z,984.58
2022-11-17T02:40:34.781Z,984.59
2022-11-17T02:41:34.761Z,984.59
2022-11-17T02:42:34.769Z,984.56
2022-11-17T02:43:35.122Z,984.54
2022-11-17T02:44:34.720Z,984.50
2022-11-17T02:45:34.932Z,984.45
2022-11-17T02:46:34.696Z,984.39
2022-11-17T02:47:34.707Z,984.34
2022-11-17T02:48:34.715Z,984.30
2022-11-17T02:49:34.678Z,984.22
2022-11-17T02:50:34.651Z,984.13
2022-11-17T02:51:34.656Z,984.16
2022-11-17T02:52:34.639Z,984.21
2022-11-17T02:53:34.970Z,984.24
2022-11-17T02:54:34.643Z,984.24
2022-11-17T02:55:34.612Z,984.24
2022-11-17T02:56:34.643Z,984.27
2022-11-17T02:57:34.601Z,984.29
2022-11-17T02:58:34.638Z,984.29
2022-11-17T02:59:34.617Z,984.26
2022-11-17T03:00:34.625Z,984.22
2022-11-17T03:01:34.699Z,984.17
2022-11-17T03:02:34.583Z,984.20
2022-11-17T03:03:35.073Z,984.27
2022-11-17T03:04:34.534Z,984.26
2022-11-17T03:05:34.768Z,984.23
2022-11-17T03:06:34.664Z,984.20
2022-11-17T03:07:34.989Z,984.13
2022-11-17T03:08:34.645Z,984.12
2022-11-17T03:09:34.460Z,984.15
2022-11-17T03:10:34.548Z,984.17
2022-11-17T03:11:34.445Z,984.15
2022-11-17T03:12:34.610Z,984.13
2022-11-17T03:13:34.714Z,984.13
2022-11-17T03:14:34.436Z,984.10
2022-11-17T03:15:35.305Z,984.07
2022-11-17T03:16:34.441Z,984.04
2022-11-17T03:17:34.405Z,984.03
2022-11-17T03:18:34.390Z,983.99
2022-11-17T03:19:34.364Z,983.97
2022-11-17T03:20:34.422Z,983.94
2022-11-17T03:21:34.335Z,983.98
2022-11-17T03:22:34.393Z,984.01
2022-11-17T03:23:34.839Z,984.02
2022-11-17T03:24:34.326Z,983.97
2022-11-17T03:25:34.318Z,983.98
2022-11-17T03:26:34.298Z,983.98
2022-11-17T03:27:34.349Z,984.02
2022-11-17T03:28:34.257Z,984.04
2022-11-17T03:29:34.253Z,984.07
2022-11-17T03:30:37.468Z,984.07
2022-11-17T03:31:34.237Z,984.06
2022-11-17T03:32:34.237Z,984.07
2022-11-17T03:33:34.669Z,984.06
2022-11-17T03:34:34.171Z,984.02
2022-11-17T03:35:34.245Z,983.98
2022-11-17T03:36:34.189Z,983.95
2022-11-17T03:37:34.215Z,983.95
2022-11-17T03:38:34.181Z,983.94
2022-11-17T03:39:34.187Z,983.95
2022-11-17T03:40:34.207Z,983.92
2022-11-17T03:41:34.132Z,983.95
2022-11-17T03:42:34.210Z,983.94
2022-11-17T03:43:34.520Z,983.90
2022-11-17T03:44:34.107Z,983.87
2022-11-17T03:45:34.118Z,983.85
2022-11-17T03:46:34.112Z,983.84
2022-11-17T03:47:34.109Z,983.87
2022-11-17T03:48:34.113Z,983.85
2022-11-17T03:49:34.075Z,983.89
2022-11-17T03:50:34.056Z,983.91
2022-11-17T03:51:34.070Z,983.90
2022-11-17T03:52:34.042Z,983.87
2022-11-17T03:53:34.338Z,983.87
2022-11-17T03:54:34.019Z,983.86
2022-11-17T03:55:33.974Z,983.87
2022-11-17T03:56:34.011Z,983.87
2022-11-17T03:57:34.009Z,983.86
2022-11-17T03:58:33.993Z,983.89
2022-11-17T03:59:33.932Z,983.93
2022-11-17T04:00:33.950Z,983.92
2022-11-17T04:01:33.981Z,983.90
2022-11-17T04:02:33.947Z,983.92
2022-11-17T04:03:34.397Z,983.89
2022-11-17T04:04:33.932Z,983.92
2022-11-17T04:05:33.873Z,983.90
2022-11-17T04:06:33.941Z,983.89
2022-11-17T04:07:33.902Z,983.90
2022-11-17T04:08:33.867Z,983.89
2022-11-17T04:09:33.873Z,983.90
2022-11-17T04:10:33.871Z,983.91
2022-11-17T04:11:33.804Z,983.87
2022-11-17T04:12:33.854Z,983.87
2022-11-17T04:13:34.136Z,983.85
2022-11-17T04:14:33.832Z,983.87
2022-11-17T04:15:33.806Z,983.84
2022-11-17T04:16:33.843Z,983.84
2022-11-17T04:17:33.754Z,983.86
2022-11-17T04:18:33.766Z,983.87
2022-11-17T04:19:33.768Z,983.85
2022-11-17T04:20:33.776Z,983.82
2022-11-17T04:21:33.719Z,983.82
2022-11-17T04:22:33.737Z,983.81
2022-11-17T04:23:34.045Z,983.84
2022-11-17T04:24:33.741Z,983.79
2022-11-17T04:25:33.730Z,983.81
2022-11-17T04:26:33.670Z,983.80
2022-11-17T04:27:33.655Z,983.80
2022-11-17T04:28:33.636Z,983.76
2022-11-17T04:29:33.691Z,983.77
2022-11-17T04:30:33.665Z,983.79
2022-11-17T04:31:33.693Z,983.78
2022-11-17T04:32:33.618Z,983.78
2022-11-17T04:33:34.015Z,983.73
2022-11-17T04:34:33.608Z,983.72
2022-11-17T04:35:33.629Z,983.68
2022-11-17T04:36:33.495Z,983.67
2022-11-17T04:37:33.542Z,983.68
2022-11-17T04:38:33.567Z,983.66
2022-11-17T04:39:33.541Z,983.69
2022-11-17T04:40:33.526Z,983.70
2022-11-17T04:41:33.545Z,983.71
2022-11-17T04:42:34.311Z,983.72
2022-11-17T04:43:33.972Z,983.69
2022-11-17T04:44:33.519Z,983.69
2022-11-17T04:45:33.465Z,983.68
2022-11-17T04:46:33.479Z,983.72
2022-11-17T04:47:33.431Z,983.69
2022-11-17T04:48:33.446Z,983.72
2022-11-17T04:49:33.452Z,983.73
2022-11-17T04:50:33.428Z,983.76
2022-11-17T04:51:33.420Z,983.76
2022-11-17T04:52:33.394Z,983.76
2022-11-17T04:53:33.781Z,983.74
2022-11-17T04:54:33.393Z,983.77
2022-11-17T04:55:33.385Z,983.77
2022-11-17T04:56:33.391Z,983.79
2022-11-17T04:57:33.369Z,983.79
2022-11-17T04:58:33.446Z,983.81
2022-11-17T04:59:33.383Z,983.79
2022-11-17T05:00:33.314Z,983.74
2022-11-17T05:01:33.294Z,983.75
2022-11-17T05:02:33.395Z,983.76
2022-11-17T05:03:33.535Z,983.78
2022-11-17T05:04:33.318Z,983.80
2022-11-17T05:05:34.298Z,983.76
2022-11-17T05:06:33.366Z,983.75
2022-11-17T05:07:33.374Z,983.74
2022-11-17T05:08:33.270Z,983.73
2022-11-17T05:09:33.240Z,983.71
2022-11-17T05:10:33.264Z,983.69
2022-11-17T05:11:33.215Z,983.68
2022-11-17T05:12:33.174Z,983.66
2022-11-17T05:13:33.538Z,983.67
2022-11-17T05:14:33.189Z,983.69
2022-11-17T05:15:33.168Z,983.70
2022-11-17T05:16:33.138Z,983.65
2022-11-17T05:17:33.141Z,983.59
2022-11-17T05:18:33.092Z,983.60
2022-11-17T05:19:33.156Z,983.61
2022-11-17T05:20:33.119Z,983.68
2022-11-17T05:21:33.070Z,983.69
2022-11-17T05:22:33.068Z,983.66
2022-11-17T05:23:33.622Z,983.67
2022-11-17T05:24:33.091Z,983.71
2022-11-17T05:25:33.119Z,983.73
2022-11-17T05:26:33.052Z,983.73
2022-11-17T05:27:33.047Z,983.73
2022-11-17T05:28:33.066Z,983.72
2022-11-17T05:29:33.075Z,983.71
2022-11-17T05:30:33.000Z,983.67
2022-11-17T05:31:32.987Z,983.68
2022-11-17T05:32:33.034Z,983.70
2022-11-17T05:33:37.601Z,983.69
2022-11-17T05:34:33.149Z,983.65
2022-11-17T05:35:32.963Z,983.58
2022-11-17T05:36:32.877Z,983.55
2022-11-17T05:37:32.935Z,983.49
2022-11-17T05:38:32.900Z,983.47
2022-11-17T05:39:32.853Z,983.44
2022-11-17T05:40:32.917Z,983.40
2022-11-17T05:41:32.898Z,983.33
2022-11-17T05:42:32.894Z,983.28
2022-11-17T05:43:33.237Z,983.27
2022-11-17T05:44:33.047Z,983.23
2022-11-17T05:45:32.831Z,983.22
2022-11-17T05:47:57.794Z,983.34
2022-11-17T05:48:58.322Z,983.40
2022-11-17T05:49:57.260Z,983.42
2022-11-17T05:51:09.990Z,983.39
2022-11-17T05:51:58.116Z,983.38
2022-11-17T05:52:58.049Z,983.34
2022-11-17T05:53:58.079Z,983.34
2022-11-17T05:54:58.041Z,983.37
2022-11-17T05:55:58.088Z,983.38
2022-11-17T05:56:58.046Z,983.34
2022-11-17T05:57:58.029Z,983.36
2022-11-17T05:58:58.018Z,983.36
2022-11-17T05:59:58.110Z,983.35
2022-11-17T06:00:57.945Z,983.37
2022-11-17T06:01:57.971Z,983.39
2022-11-17T06:02:57.994Z,983.37
2022-11-17T06:03:58.075Z,983.33
2022-11-17T06:04:57.946Z,983.31
2022-11-17T06:05:57.945Z,983.29
2022-11-17T06:06:57.938Z,983.27
2022-11-17T06:07:57.982Z,983.25
2022-11-17T06:08:58.008Z,983.28
2022-11-17T06:09:58.063Z,983.28
2022-11-17T06:10:57.932Z,983.26
2022-11-17T06:12:02.606Z,983.24
2022-11-17T06:12:58.075Z,983.22
2022-11-17T06:13:58.109Z,983.25
2022-11-17T06:14:57.993Z,983.25
2022-11-17T06:15:58.023Z,983.23
2022-11-17T06:16:57.798Z,983.23
2022-11-17T06:17:57.876Z,983.23
2022-11-17T06:18:57.802Z,983.23
2022-11-17T06:19:57.791Z,983.28
2022-11-17T06:20:57.815Z,983.31
2022-11-17T06:22:11.793Z,983.31
2022-11-17T06:22:57.862Z,983.30
2022-11-17T06:23:57.846Z,983.32
2022-11-17T06:24:57.897Z,983.35
2022-11-17T06:25:57.905Z,983.32
2022-11-17T06:26:57.903Z,983.30
2022-11-17T06:27:57.825Z,983.29
2022-11-17T06:28:57.792Z,983.33
2022-11-17T06:29:57.712Z,983.33
2022-11-17T06:30:57.718Z,983.34
2022-11-17T06:31:57.741Z,983.35
2022-11-17T06:32:57.666Z,983.43
2022-11-17T06:33:57.674Z,983.44
2022-11-17T06:34:57.713Z,983.40
2022-11-17T06:35:57.726Z,983.33
2022-11-17T06:36:57.737Z,983.36
2022-11-17T06:37:57.990Z,983.37
2022-11-17T06:38:57.872Z,983.34
2022-11-17T06:39:57.643Z,983.34
2022-11-17T06:40:58.045Z,983.33
2022-11-17T06:41:57.559Z,983.33
2022-11-17T06:42:57.748Z,983.33
2022-11-17T06:43:57.563Z,983.31
2022-11-17T06:44:57.462Z,983.33
2022-11-17T06:45:57.477Z,983.31
2022-11-17T06:46:57.617Z,983.32
2022-11-17T06:47:57.461Z,983.32
2022-11-17T06:48:57.469Z,983.31
2022-11-17T06:49:57.490Z,983.29
2022-11-17T06:50:57.531Z,983.31
2022-11-17T06:51:57.528Z,983.33
2022-11-17T06:52:57.492Z,983.30
2022-11-17T06:53:57.369Z,983.33
2022-11-17T06:54:57.370Z,983.38
2022-11-17T06:55:57.601Z,983.35
2022-11-17T06:56:57.365Z,983.35
2022-11-17T06:57:57.403Z,983.35
2022-11-17T06:58:57.404Z,983.35
2022-11-17T06:59:57.364Z,983.32
2022-11-17T07:00:57.752Z,983.29
2022-11-17T07:01:57.329Z,983.28
2022-11-17T07:02:57.586Z,983.32
2022-11-17T07:03:57.978Z,983.33
2022-11-17T07:04:57.328Z,983.36
2022-11-17T07:05:57.253Z,983.39
2022-11-17T07:06:57.472Z,983.41
2022-11-17T07:07:57.342Z,983.41
2022-11-17T07:08:57.266Z,983.41
2022-11-17T07:09:57.205Z,983.46
2022-11-17T07:10:57.211Z,983.35
2022-11-17T07:11:57.248Z,983.34
2022-11-17T07:12:57.243Z,983.38
2022-11-17T07:13:57.174Z,983.39
2022-11-17T07:14:57.170Z,983.40
2022-11-17T07:15:57.341Z,983.41
2022-11-17T07:16:57.245Z,983.39
2022-11-17T07:17:57.227Z,983.42
2022-11-17T07:18:57.233Z,983.38
2022-11-17T07:19:57.269Z,983.40
2022-11-17T07:20:57.584Z,983.42
2022-11-17T07:21:57.251Z,983.41
2022-11-17T07:22:57.327Z,983.43
2022-11-17T07:23:57.224Z,983.41
2022-11-17T07:24:57.186Z,983.43
2022-11-17T07:25:57.281Z,983.39
2022-11-17T07:26:57.351Z,983.38
2022-11-17T07:27:57.141Z,983.33
2022-11-17T07:28:57.049Z,983.30
2022-11-17T07:29:57.058Z,983.30
2022-11-17T07:30:57.257Z,983.29
2022-11-17T07:31:57.090Z,983.29
2022-11-17T07:32:57.125Z,983.28
2022-11-17T07:33:57.001Z,983.29
2022-11-17T07:34:57.140Z,983.31
2022-11-17T07:35:57.037Z,983.29
2022-11-17T07:36:56.915Z,983.28
2022-11-17T07:37:56.913Z,983.28
2022-11-17T07:38:56.920Z,983.27
2022-11-17T07:39:56.923Z,983.24
2022-11-17T07:40:57.093Z,983.26
2022-11-17T07:41:56.893Z,983.23
2022-11-17T07:42:57.474Z,983.23
2022-11-17T07:43:56.934Z,983.21
2022-11-17T07:44:57.099Z,983.23
2022-11-17T07:45:57.229Z,983.22
2022-11-17T07:46:56.840Z,983.24
2022-11-17T07:47:56.845Z,983.26
2022-11-17T07:48:56.801Z,983.25
2022-11-17T07:49:56.890Z,983.22
2022-11-17T07:51:00.688Z,983.21
2022-11-17T07:51:57.093Z,983.21
2022-11-17T07:52:56.800Z,983.23
2022-11-17T07:53:56.742Z,983.20
2022-11-17T07:54:56.730Z,983.20
2022-11-17T07:55:56.803Z,983.18
2022-11-17T07:56:56.793Z,983.19
2022-11-17T07:57:56.747Z,983.18
2022-11-17T07:58:56.744Z,983.19
2022-11-17T07:59:56.794Z,983.15
2022-11-17T08:00:57.364Z,983.15
2022-11-17T08:01:56.684Z,983.17
2022-11-17T08:02:56.720Z,983.19
2022-11-17T08:03:56.831Z,983.17
2022-11-17T08:04:56.705Z,983.19
2022-11-17T08:05:56.644Z,983.19
2022-11-17T08:06:56.683Z,983.17
2022-11-17T08:07:56.707Z,983.19
2022-11-17T08:08:56.613Z,983.20
2022-11-17T08:09:56.735Z,983.19
2022-11-17T08:10:56.602Z,983.21
2022-11-17T08:11:56.733Z,983.24
2022-11-17T08:12:56.845Z,983.25
2022-11-17T08:13:56.534Z,983.25
2022-11-17T08:14:56.777Z,983.25
2022-11-17T08:15:56.596Z,983.22
2022-11-17T08:16:56.530Z,983.21
2022-11-17T08:17:56.601Z,983.23
2022-11-17T08:18:56.676Z,983.25
2022-11-17T08:19:56.693Z,983.27
2022-11-17T08:20:56.546Z,983.28
2022-11-17T08:21:56.715Z,983.29
2022-11-17T08:22:56.609Z,983.28
2022-11-17T08:23:56.460Z,983.29
2022-11-17T08:24:56.776Z,983.32
2022-11-17T08:25:56.424Z,983.27
2022-11-17T08:26:56.633Z,983.30
2022-11-17T08:27:56.513Z,983.29
2022-11-17T08:28:58.830Z,983.29
2022-11-17T08:29:56.608Z,983.31
2022-11-17T08:30:56.677Z,983.30
2022-11-17T08:31:56.424Z,983.27
2022-11-17T08:32:56.396Z,983.30
2022-11-17T08:33:56.352Z,983.28
2022-11-17T08:34:56.337Z,983.28
2022-11-17T08:35:56.384Z,983.30
2022-11-17T08:36:56.368Z,983.30
2022-11-17T08:37:56.427Z,983.31
2022-11-17T08:38:56.280Z,983.28
2022-11-17T08:39:56.342Z,983.32
2022-11-17T08:40:56.387Z,983.31
2022-11-17T08:41:56.734Z,983.28
2022-11-17T08:43:00.903Z,983.29
2022-11-17T08:43:56.330Z,983.32
2022-11-17T08:44:56.543Z,983.30
2022-11-17T08:45:56.272Z,983.35
2022-11-17T08:46:56.241Z,983.32
2022-11-17T08:47:56.237Z,983.35
2022-11-17T08:48:57.210Z,983.35
2022-11-17T08:49:56.266Z,983.37
2022-11-17T08:50:56.233Z,983.38
2022-11-17T08:51:56.164Z,983.37
2022-11-17T08:52:56.150Z,983.41
2022-11-17T08:53:56.204Z,983.41
2022-11-17T08:54:56.207Z,983.41
2022-11-17T08:55:56.159Z,983.42
2022-11-17T08:56:56.150Z,983.48
2022-11-17T08:57:56.130Z,983.46
2022-11-17T08:58:56.163Z,983.50
2022-11-17T08:59:56.120Z,983.46
2022-11-17T09:01:00.967Z,983.52
2022-11-17T09:01:56.129Z,983.55
2022-11-17T09:02:56.082Z,983.53
2022-11-17T09:03:56.119Z,983.50
2022-11-17T09:04:56.062Z,983.55
2022-11-17T09:05:56.040Z,983.57
2022-11-17T09:06:56.195Z,983.57
2022-11-17T09:08:02.463Z,983.58
2022-11-17T09:08:56.561Z,983.57
2022-11-17T09:09:55.998Z,983.60
2022-11-17T09:10:55.981Z,983.57
2022-11-17T09:11:55.951Z,983.60
2022-11-17T09:12:56.020Z,983.61
2022-11-17T09:13:55.964Z,983.62
2022-11-17T09:14:55.941Z,983.61
2022-11-17T09:15:55.964Z,983.65
2022-11-17T09:16:55.982Z,983.70
2022-11-17T09:17:55.919Z,983.65
2022-11-17T09:18:55.967Z,983.64
2022-11-17T09:19:55.874Z,983.70
2022-11-17T09:20:55.912Z,983.66
2022-11-17T09:21:55.881Z,983.74
2022-11-17T09:22:55.836Z,983.79
2022-11-17T09:23:55.935Z,983.75
2022-11-17T09:24:55.803Z,983.76
2022-11-17T09:25:55.849Z,983.80
2022-11-17T09:26:55.794Z,983.82
2022-11-17T09:27:55.852Z,983.85
2022-11-17T09:28:55.810Z,983.87
2022-11-17T09:30:08.670Z,983.88
2022-11-17T09:30:55.873Z,983.89
2022-11-17T09:31:56.487Z,983.91
2022-11-17T09:32:58.141Z,983.94
2022-11-17T09:33:59.404Z,983.96
2022-11-17T09:34:55.894Z,983.98
2022-11-17T09:35:55.931Z,984.00
2022-11-17T09:36:55.745Z,984.01
2022-11-17T09:37:56.645Z,984.05
2022-11-17T09:39:32.453Z,984.08
2022-11-17T09:39:58.358Z,984.08
2022-11-17T09:40:56.100Z,984.11
2022-11-17T09:42:18.624Z,984.13
2022-11-17T09:42:56.933Z,984.17
2022-11-17T09:43:56.243Z,984.18
2022-11-17T09:44:59.266Z,984.24
2022-11-17T09:46:00.742Z,984.22
2022-11-17T09:47:04.742Z,984.22
2022-11-17T09:48:12.456Z,984.26
2022-11-17T09:48:56.279Z,984.21
2022-11-17T09:49:59.183Z,984.27
2022-11-17T09:50:56.455Z,984.23
2022-11-17T09:51:57.395Z,984.29
2022-11-17T09:52:56.920Z,984.29
2022-11-17T09:53:55.560Z,984.30
2022-11-17T09:54:56.333Z,984.28
2022-11-17T09:55:56.622Z,984.32
2022-11-17T09:57:06.225Z,984.31
2022-11-17T09:58:00.420Z,984.29
2022-11-17T09:59:06.657Z,984.31
2022-11-17T09:59:55.460Z,984.32
2022-11-17T10:00:55.514Z,984.34
2022-11-17T10:01:55.625Z,984.37
2022-11-17T10:02:55.433Z,984.40
2022-11-17T10:03:55.393Z,984.39
2022-11-17T10:04:55.420Z,984.40
2022-11-17T10:05:55.422Z,984.43
2022-11-17T10:06:55.373Z,984.43
2022-11-17T10:07:55.445Z,984.43
2022-11-17T10:08:55.384Z,984.46
2022-11-17T10:09:55.430Z,984.45
2022-11-17T10:10:55.421Z,984.46
2022-11-17T10:11:55.360Z,984.44
2022-11-17T10:12:55.339Z,984.45
2022-11-17T10:13:55.645Z,984.45
2022-11-17T10:14:55.282Z,984.42
2022-11-17T10:15:55.303Z,984.44
2022-11-17T10:16:55.349Z,984.48
2022-11-17T10:17:55.336Z,984.46
2022-11-17T10:18:55.300Z,984.49
2022-11-17T10:19:55.390Z,984.43
2022-11-17T10:20:55.237Z,984.42
2022-11-17T10:21:55.289Z,984.43
2022-11-17T10:22:55.268Z,984.42
2022-11-17T10:23:55.216Z,984.41
2022-11-17T10:24:55.195Z,984.45
2022-11-17T10:25:55.307Z,984.44
2022-11-17T10:26:55.206Z,984.48
2022-11-17T10:27:55.190Z,984.47
2022-11-17T10:28:55.163Z,984.45
2022-11-17T10:29:55.133Z,984.40
2022-11-17T10:30:55.131Z,984.41
2022-11-17T10:31:55.114Z,984.42
2022-11-17T10:32:55.184Z,984.40
2022-11-17T10:33:55.161Z,984.43
2022-11-17T10:34:55.245Z,984.41
2022-11-17T10:35:55.112Z,984.41
2022-11-17T10:36:55.075Z,984.44
2022-11-17T10:37:55.089Z,984.45
2022-11-17T10:38:55.094Z,984.47
2022-11-17T10:39:55.087Z,984.46
2022-11-17T10:40:55.063Z,984.46
2022-11-17T10:41:55.006Z,984.50
2022-11-17T10:42:54.982Z,984.54
2022-11-17T10:43:55.072Z,984.53
2022-11-17T10:44:55.030Z,984.51
2022-11-17T10:45:54.987Z,984.54
2022-11-17T10:47:00.551Z,984.54
2022-11-17T10:47:54.955Z,984.58
2022-11-17T10:48:55.031Z,984.57
2022-11-17T10:49:54.945Z,984.58
2022-11-17T10:50:54.908Z,984.59
2022-11-17T10:51:54.909Z,984.58
2022-11-17T10:52:54.896Z,984.59
2022-11-17T10:53:54.941Z,984.58
2022-11-17T10:54:55.054Z,984.57
2022-11-17T10:55:54.862Z,984.56
2022-11-17T10:56:54.927Z,984.57
2022-11-17T10:57:54.907Z,984.56
2022-11-17T10:58:54.837Z,984.55
2022-11-17T10:59:57.152Z,984.56
2022-11-17T11:00:55.098Z,984.57
2022-11-17T11:01:54.821Z,984.59
2022-11-17T11:02:54.782Z,984.63
2022-11-17T11:03:54.785Z,984.64
2022-11-17T11:04:55.528Z,984.63
2022-11-17T11:05:55.539Z,984.58
2022-11-17T11:06:54.890Z,984.56
2022-11-17T11:07:54.890Z,984.58
2022-11-17T11:08:54.738Z,984.61
2022-11-17T11:09:54.772Z,984.64
2022-11-17T11:10:54.703Z,984.64
2022-11-17T11:11:54.718Z,984.61
2022-11-17T11:12:54.679Z,984.61
2022-11-17T11:13:54.690Z,984.61
2022-11-17T11:14:54.649Z,984.57
2022-11-17T11:15:54.904Z,984.56
2022-11-17T11:16:54.720Z,984.58
2022-11-17T11:17:54.674Z,984.57
2022-11-17T11:18:54.643Z,984.56
2022-11-17T11:19:54.687Z,984.55
2022-11-17T11:20:54.650Z,984.55
2022-11-17T11:21:54.648Z,984.56
2022-11-17T11:22:55.254Z,984.56
2022-11-17T11:23:54.708Z,984.59
2022-11-17T11:24:56.918Z,984.61
2022-11-17T11:25:54.597Z,984.61
2022-11-17T11:26:54.598Z,984.62
2022-11-17T11:27:54.635Z,984.63
2022-11-17T11:28:55.055Z,984.62
2022-11-17T11:29:54.508Z,984.65
2022-11-17T11:30:54.515Z,984.66
2022-11-17T11:31:54.509Z,984.68
2022-11-17T11:32:54.490Z,984.61
2022-11-17T11:33:54.554Z,984.64
2022-11-17T11:34:54.530Z,984.65
2022-11-17T11:35:54.447Z,984.71
2022-11-17T11:36:54.453Z,984.70
2022-11-17T11:37:54.470Z,984.68
2022-11-17T11:38:54.531Z,984.71
2022-11-17T11:39:54.508Z,984.70
2022-11-17T11:40:54.518Z,984.71
2022-11-17T11:41:54.439Z,984.69
2022-11-17T11:42:54.461Z,984.69
2022-11-17T11:43:54.430Z,984.69
2022-11-17T11:44:54.392Z,984.64
2022-11-17T11:45:54.460Z,984.63
2022-11-17T11:46:54.388Z,984.64
2022-11-17T11:47:54.415Z,984.65
2022-11-17T11:48:54.564Z,984.62
2022-11-17T11:49:54.486Z,984.59
2022-11-17T11:50:54.449Z,984.57
2022-11-17T11:51:54.591Z,984.57
2022-11-17T11:52:54.335Z,984.55
2022-11-17T11:53:54.333Z,984.50
2022-11-17T11:54:54.305Z,984.52
2022-11-17T11:55:54.285Z,984.51
2022-11-17T11:56:54.255Z,984.56
2022-11-17T11:57:54.219Z,984.56
2022-11-17T11:58:54.273Z,984.60
2022-11-17T11:59:57.180Z,984.61
2022-11-17T12:00:54.276Z,984.63
2022-11-17T12:01:54.227Z,984.63
2022-11-17T12:02:54.239Z,984.65
2022-11-17T12:03:54.268Z,984.63
2022-11-17T12:04:54.207Z,984.63
2022-11-17T12:05:54.179Z,984.63
2022-11-17T12:06:55.074Z,984.58
2022-11-17T12:07:54.127Z,984.56
2022-11-17T12:08:54.339Z,984.60
2022-11-17T12:09:54.136Z,984.68
2022-11-17T12:10:54.108Z,984.69
2022-11-17T12:11:54.094Z,984.72
2022-11-17T12:12:54.084Z,984.72
2022-11-17T12:13:54.549Z,984.70
2022-11-17T12:14:54.049Z,984.69
2022-11-17T12:15:54.061Z,984.67
2022-11-17T12:16:54.071Z,984.66
2022-11-17T12:17:54.099Z,984.67
2022-11-17T12:18:54.024Z,984.70
2022-11-17T12:19:54.022Z,984.68
2022-11-17T12:20:54.031Z,984.72
2022-11-17T12:21:54.003Z,984.72
2022-11-17T12:22:54.033Z,984.71
2022-11-17T12:23:54.012Z,984.71
2022-11-17T12:24:54.005Z,984.72
2022-11-17T12:25:54.545Z,984.78
2022-11-17T12:26:54.182Z,984.83
2022-11-17T12:27:54.054Z,984.85
2022-11-17T12:28:54.152Z,984.86
2022-11-17T12:29:53.879Z,984.84